BAW902 EGLL-EDDF
Flight info
| Callsign | BAW902 |
|---|---|
| Flight time | N/A |
| Altitude | 35000 |
| Route | BPK Q295 MATCH DCT REDFA DCT TACHA DCT NOLRU DCT DIXAT DIXAT1A |
| Aircraft | A320/M-SDE3FGHIRWY/LB1 |
Departure
| Time | 2026-05-04 08:35 |
|---|---|
| Airport | London Heathrow Airport (EGLL) |
Arrival
| Time | N/A |
|---|---|
| Airport | Frankfurt Main Airport (EDDF) |
| Time | Latitude | Longitude | Altitude | Speed | Heading |
|---|---|---|---|---|---|
| 2026-05-04 07:15 | 51.47232 | -0.48585 | 91 ft | 0 kts | 270° |
| 2026-05-04 08:16 | 51.47272 | -0.48473 | 86 ft | 0 kts | 180° |
| 2026-05-04 08:20 | 51.47270 | -0.48473 | 86 ft | 0 kts | 180° |
| 2026-05-04 08:20 | 51.47263 | -0.48473 | 86 ft | 2 kts | 179° |
| 2026-05-04 08:20 | 51.47261 | -0.48473 | 86 ft | 0 kts | 177° |
| 2026-05-04 08:22 | 51.47245 | -0.48471 | 86 ft | 9 kts | 176° |
| 2026-05-04 08:22 | 51.47184 | -0.48471 | 88 ft | 9 kts | 180° |
| 2026-05-04 08:24 | 51.46681 | -0.48470 | 86 ft | 0 kts | 184° |
| 2026-05-04 08:24 | 51.46678 | -0.48470 | 86 ft | 1 kts | 185° |
| 2026-05-04 08:24 | 51.46673 | -0.48472 | 86 ft | 1 kts | 191° |
| 2026-05-04 08:25 | 51.46665 | -0.48473 | 87 ft | 3 kts | 174° |
| 2026-05-04 08:25 | 51.46648 | -0.48420 | 88 ft | 7 kts | 105° |
| 2026-05-04 08:25 | 51.46640 | -0.48346 | 90 ft | 8 kts | 99° |
| 2026-05-04 08:25 | 51.46645 | -0.48240 | 86 ft | 10 kts | 90° |
| 2026-05-04 08:26 | 51.46642 | -0.48207 | 87 ft | 6 kts | 88° |
| 2026-05-04 08:27 | 51.46652 | -0.47685 | 89 ft | 0 kts | 89° |
| 2026-05-04 08:28 | 51.46652 | -0.47684 | 86 ft | 1 kts | 90° |
| 2026-05-04 08:29 | 51.46653 | -0.47639 | 86 ft | 7 kts | 87° |
| 2026-05-04 08:29 | 51.46655 | -0.47487 | 89 ft | 17 kts | 91° |
| 2026-05-04 08:29 | 51.46654 | -0.47284 | 90 ft | 20 kts | 89° |
| 2026-05-04 08:31 | 51.46664 | -0.45186 | 90 ft | 32 kts | 91° |
| 2026-05-04 08:33 | 51.46587 | -0.43604 | 87 ft | 9 kts | 177° |
| 2026-05-04 08:33 | 51.46515 | -0.43605 | 90 ft | 11 kts | 200° |
| 2026-05-04 08:35 | 51.46473 | -0.47173 | 350 ft | 161 kts | 270° |
| 2026-05-04 08:35 | 51.46475 | -0.48956 | 1036 ft | 160 kts | 273° |
| 2026-05-04 08:35 | 51.46572 | -0.50770 | 1596 ft | 171 kts | 288° |
| 2026-05-04 08:35 | 51.47084 | -0.52614 | 1989 ft | 192 kts | 299° |
| 2026-05-04 08:37 | 51.52889 | -0.65314 | 5812 ft | 273 kts | 351° |
| 2026-05-04 08:37 | 51.54775 | -0.65389 | 5969 ft | 273 kts | 10° |
| 2026-05-04 08:37 | 51.56461 | -0.64102 | 6002 ft | 272 kts | 40° |
| 2026-05-04 08:38 | 51.57699 | -0.61805 | 6003 ft | 273 kts | 57° |
| 2026-05-04 08:38 | 51.58768 | -0.59282 | 6007 ft | 274 kts | 54° |
| 2026-05-04 08:38 | 51.59903 | -0.56814 | 6009 ft | 273 kts | 53° |
| 2026-05-04 08:40 | 51.65844 | -0.37595 | 8756 ft | 285 kts | 72° |
| 2026-05-04 08:40 | 51.66471 | -0.34545 | 9601 ft | 289 kts | 72° |
| 2026-05-04 08:40 | 51.67110 | -0.31421 | 10336 ft | 301 kts | 72° |
| 2026-05-04 08:41 | 51.67789 | -0.28098 | 10630 ft | 325 kts | 72° |
| 2026-05-04 08:41 | 51.68519 | -0.24532 | 10975 ft | 344 kts | 72° |
| 2026-05-04 08:41 | 51.69279 | -0.20835 | 11625 ft | 351 kts | 72° |
| 2026-05-04 08:41 | 51.70053 | -0.17073 | 12325 ft | 356 kts | 73° |
| 2026-05-04 08:42 | 51.70832 | -0.13264 | 13023 ft | 360 kts | 73° |
| 2026-05-04 08:42 | 51.71617 | -0.09400 | 13713 ft | 364 kts | 73° |
| 2026-05-04 08:42 | 51.72407 | -0.05501 | 14394 ft | 368 kts | 73° |
| 2026-05-04 08:42 | 51.73209 | -0.01545 | 15058 ft | 373 kts | 73° |
| 2026-05-04 08:43 | 51.74018 | 0.02438 | 15699 ft | 376 kts | 73° |
| 2026-05-04 08:43 | 51.74838 | 0.06480 | 16265 ft | 382 kts | 72° |
| 2026-05-04 08:43 | 51.75672 | 0.10589 | 16815 ft | 388 kts | 72° |
| 2026-05-04 08:43 | 51.76510 | 0.14745 | 17422 ft | 391 kts | 73° |
| 2026-05-04 08:44 | 51.77326 | 0.18957 | 17990 ft | 395 kts | 76° |
| 2026-05-04 08:44 | 51.77806 | 0.23341 | 18583 ft | 398 kts | 83° |
| 2026-05-04 08:46 | 51.82656 | 0.54691 | 22386 ft | 423 kts | 77° |
| 2026-05-04 08:46 | 51.83388 | 0.59337 | 22865 ft | 426 kts | 77° |
| 2026-05-04 08:46 | 51.84122 | 0.64014 | 23321 ft | 430 kts | 78° |
| 2026-05-04 08:46 | 51.84846 | 0.68668 | 23772 ft | 433 kts | 78° |
| 2026-05-04 08:47 | 51.85593 | 0.73469 | 24228 ft | 437 kts | 78° |
| 2026-05-04 08:47 | 51.86339 | 0.78252 | 24630 ft | 441 kts | 78° |
| 2026-05-04 08:47 | 51.87093 | 0.83081 | 25039 ft | 445 kts | 78° |
| 2026-05-04 08:47 | 51.87849 | 0.87953 | 25438 ft | 449 kts | 78° |
| 2026-05-04 08:48 | 51.88603 | 0.92825 | 25801 ft | 452 kts | 78° |
| 2026-05-04 08:48 | 51.89368 | 0.97789 | 26185 ft | 456 kts | 78° |
| 2026-05-04 08:48 | 51.90134 | 1.02801 | 26536 ft | 460 kts | 79° |
| 2026-05-04 08:48 | 51.90900 | 1.07846 | 26889 ft | 464 kts | 79° |
| 2026-05-04 08:49 | 51.91671 | 1.12938 | 27255 ft | 467 kts | 79° |
| 2026-05-04 08:50 | 51.96412 | 1.44337 | 29270 ft | 489 kts | 80° |
| 2026-05-04 08:50 | 51.97201 | 1.49642 | 29573 ft | 492 kts | 80° |
| 2026-05-04 08:51 | 51.98004 | 1.55055 | 29881 ft | 495 kts | 81° |
| 2026-05-04 08:51 | 51.98811 | 1.60499 | 30182 ft | 498 kts | 81° |
| 2026-05-04 08:51 | 51.99621 | 1.65985 | 30495 ft | 501 kts | 80° |
| 2026-05-04 08:51 | 52.00429 | 1.71500 | 30851 ft | 503 kts | 80° |
| 2026-05-04 08:52 | 52.01234 | 1.77006 | 31366 ft | 500 kts | 80° |
| 2026-05-04 08:52 | 52.02035 | 1.82489 | 31903 ft | 498 kts | 79° |
| 2026-05-04 08:52 | 52.02830 | 1.87947 | 32455 ft | 495 kts | 79° |
| 2026-05-04 08:52 | 52.03617 | 1.93378 | 32996 ft | 492 kts | 79° |
| 2026-05-04 08:53 | 52.04394 | 1.98757 | 33500 ft | 489 kts | 79° |
| 2026-05-04 08:54 | 52.09676 | 2.35908 | 35025 ft | 479 kts | 79° |
| 2026-05-04 08:55 | 52.11147 | 2.46478 | 35021 ft | 479 kts | 79° |
| 2026-05-04 08:55 | 52.12830 | 2.56967 | 35015 ft | 480 kts | 75° |
| 2026-05-04 09:01 | 52.15797 | 3.65105 | 34989 ft | 469 kts | 116° |
| 2026-05-04 09:01 | 52.13407 | 3.74982 | 34990 ft | 469 kts | 116° |
| 2026-05-04 09:02 | 52.11005 | 3.84851 | 34994 ft | 469 kts | 117° |
| 2026-05-04 09:02 | 52.08591 | 3.94704 | 34996 ft | 470 kts | 117° |
| 2026-05-04 09:03 | 52.06166 | 4.04570 | 35001 ft | 470 kts | 117° |
| 2026-05-04 09:03 | 52.03733 | 4.14426 | 34992 ft | 470 kts | 117° |
| 2026-05-04 09:04 | 52.01290 | 4.24268 | 35004 ft | 470 kts | 117° |
| 2026-05-04 09:04 | 51.98843 | 4.34110 | 35003 ft | 470 kts | 117° |
| 2026-05-04 09:05 | 51.96390 | 4.43934 | 35011 ft | 469 kts | 117° |
| 2026-05-04 09:05 | 51.93930 | 4.53724 | 35010 ft | 469 kts | 117° |
| 2026-05-04 09:06 | 51.91459 | 4.63513 | 35012 ft | 469 kts | 117° |
| 2026-05-04 09:08 | 51.81526 | 5.02444 | 35016 ft | 467 kts | 117° |
| 2026-05-04 09:08 | 51.79032 | 5.12124 | 35017 ft | 466 kts | 117° |
| 2026-05-04 09:09 | 51.76541 | 5.21783 | 35017 ft | 466 kts | 117° |
| 2026-05-04 09:09 | 51.74030 | 5.31426 | 35006 ft | 467 kts | 118° |
| 2026-05-04 09:10 | 51.71507 | 5.41088 | 34992 ft | 468 kts | 118° |
| 2026-05-04 09:10 | 51.68969 | 5.50745 | 34985 ft | 469 kts | 118° |
| 2026-05-04 09:11 | 51.66426 | 5.60431 | 34985 ft | 469 kts | 118° |
| 2026-05-04 09:11 | 51.63859 | 5.70102 | 35000 ft | 470 kts | 118° |
| 2026-05-04 09:12 | 51.61282 | 5.79790 | 35000 ft | 471 kts | 118° |
| 2026-05-04 09:14 | 51.51329 | 6.16868 | 35009 ft | 471 kts | 118° |
| 2026-05-04 09:14 | 51.48754 | 6.26537 | 35011 ft | 472 kts | 117° |
| 2026-05-04 09:15 | 51.46367 | 6.36339 | 35010 ft | 472 kts | 115° |
| 2026-05-04 09:15 | 51.44027 | 6.46177 | 35012 ft | 472 kts | 116° |
| 2026-05-04 09:17 | 51.33125 | 6.89996 | 35013 ft | 469 kts | 116° |
| 2026-05-04 09:18 | 51.30705 | 6.99594 | 35014 ft | 469 kts | 116° |
| 2026-05-04 09:18 | 51.27950 | 7.09042 | 35001 ft | 462 kts | 128° |
| 2026-05-04 09:19 | 51.23786 | 7.16629 | 33931 ft | 455 kts | 147° |
| 2026-05-04 09:19 | 51.21175 | 7.19482 | 32924 ft | 455 kts | 156° |
| 2026-05-04 09:19 | 51.18359 | 7.21718 | 31808 ft | 450 kts | 160° |
| 2026-05-04 09:20 | 51.15536 | 7.23909 | 30286 ft | 453 kts | 159° |
| 2026-05-04 09:20 | 51.12729 | 7.26128 | 29008 ft | 448 kts | 159° |
| 2026-05-04 09:20 | 51.09964 | 7.28349 | 27775 ft | 442 kts | 158° |
| 2026-05-04 09:20 | 51.07251 | 7.30582 | 26551 ft | 436 kts | 158° |
| 2026-05-04 09:21 | 51.04581 | 7.32813 | 25685 ft | 432 kts | 157° |
| 2026-05-04 09:21 | 51.01941 | 7.35028 | 25115 ft | 426 kts | 157° |
| 2026-05-04 09:21 | 50.99339 | 7.37201 | 24513 ft | 420 kts | 157° |
| 2026-05-04 09:21 | 50.97506 | 7.38722 | 24098 ft | 416 kts | 157° |
| 2026-05-04 09:23 | 50.96620 | 7.39458 | 23923 ft | 414 kts | 157° |
| 2026-05-04 09:25 | 50.83572 | 7.50093 | 21117 ft | 389 kts | 156° |
| 2026-05-04 09:25 | 50.81158 | 7.52100 | 20598 ft | 386 kts | 156° |
| 2026-05-04 09:26 | 50.78789 | 7.54046 | 20077 ft | 382 kts | 156° |
| 2026-05-04 09:26 | 50.76433 | 7.55962 | 19551 ft | 379 kts | 156° |
| 2026-05-04 09:26 | 50.74132 | 7.57819 | 19031 ft | 375 kts | 156° |
| 2026-05-04 09:26 | 50.71820 | 7.59682 | 18511 ft | 371 kts | 156° |
| 2026-05-04 09:27 | 50.69726 | 7.61962 | 18370 ft | 363 kts | 140° |
| 2026-05-04 09:27 | 50.68182 | 7.65024 | 18273 ft | 353 kts | 124° |
| 2026-05-04 09:27 | 50.66946 | 7.68313 | 18212 ft | 350 kts | 124° |
| 2026-05-04 09:27 | 50.65705 | 7.71637 | 18129 ft | 353 kts | 124° |
| 2026-05-04 09:28 | 50.64448 | 7.75004 | 17308 ft | 362 kts | 124° |
| 2026-05-04 09:28 | 50.63161 | 7.78444 | 16588 ft | 366 kts | 124° |
| 2026-05-04 09:28 | 50.61874 | 7.81891 | 16034 ft | 364 kts | 123° |
| 2026-05-04 09:28 | 50.60591 | 7.85324 | 15495 ft | 362 kts | 123° |
| 2026-05-04 09:29 | 50.59321 | 7.88721 | 14953 ft | 359 kts | 123° |
| 2026-05-04 09:29 | 50.58056 | 7.92100 | 14415 ft | 357 kts | 123° |
| 2026-05-04 09:29 | 50.56802 | 7.95447 | 13889 ft | 354 kts | 123° |
| 2026-05-04 09:29 | 50.55554 | 7.98764 | 13364 ft | 351 kts | 123° |
| 2026-05-04 09:30 | 50.54312 | 8.02058 | 12837 ft | 349 kts | 123° |
| 2026-05-04 09:30 | 50.53080 | 8.05322 | 12320 ft | 347 kts | 123° |
| 2026-05-04 09:30 | 50.51852 | 8.08572 | 11832 ft | 344 kts | 123° |
| 2026-05-04 09:30 | 50.50633 | 8.11792 | 11328 ft | 341 kts | 123° |
| 2026-05-04 09:31 | 50.49423 | 8.14986 | 11060 ft | 341 kts | 123° |
| 2026-05-04 09:31 | 50.48206 | 8.18186 | 11020 ft | 342 kts | 123° |
| 2026-05-04 09:31 | 50.46985 | 8.21396 | 11035 ft | 343 kts | 123° |
| 2026-05-04 09:31 | 50.45762 | 8.24612 | 11053 ft | 343 kts | 123° |
| 2026-05-04 09:32 | 50.44539 | 8.27826 | 11036 ft | 343 kts | 123° |
| 2026-05-04 09:32 | 50.43319 | 8.31041 | 11033 ft | 343 kts | 123° |
| 2026-05-04 09:34 | 50.34732 | 8.53479 | 11035 ft | 343 kts | 123° |
| 2026-05-04 09:34 | 50.33502 | 8.56683 | 11036 ft | 343 kts | 123° |
| 2026-05-04 09:34 | 50.32274 | 8.59883 | 11035 ft | 343 kts | 123° |
| 2026-05-04 09:34 | 50.31041 | 8.63087 | 11007 ft | 344 kts | 123° |
| 2026-05-04 09:35 | 50.29802 | 8.66275 | 10755 ft | 342 kts | 124° |
| 2026-05-04 09:35 | 50.28556 | 8.69439 | 10505 ft | 341 kts | 124° |
| 2026-05-04 09:35 | 50.27326 | 8.72550 | 10305 ft | 330 kts | 124° |
| 2026-05-04 09:35 | 50.26146 | 8.75541 | 10197 ft | 317 kts | 124° |
| 2026-05-04 09:37 | 50.18694 | 8.94360 | 8648 ft | 280 kts | 124° |
| 2026-05-04 09:37 | 50.17663 | 8.96933 | 8369 ft | 279 kts | 124° |
| 2026-05-04 09:38 | 50.16640 | 8.99485 | 8080 ft | 277 kts | 124° |
| 2026-05-04 09:38 | 50.15618 | 9.02020 | 7767 ft | 276 kts | 124° |
| 2026-05-04 09:38 | 50.14696 | 9.04639 | 7487 ft | 275 kts | 115° |
| 2026-05-04 09:38 | 50.14068 | 9.07444 | 7189 ft | 274 kts | 114° |
| 2026-05-04 09:39 | 50.12996 | 9.09776 | 6983 ft | 263 kts | 143° |
| 2026-05-04 09:39 | 50.11399 | 9.10954 | 6857 ft | 250 kts | 173° |
| 2026-05-04 09:39 | 50.09733 | 9.10726 | 6711 ft | 238 kts | 203° |
| 2026-05-04 09:39 | 50.08436 | 9.09233 | 6439 ft | 233 kts | 234° |
| 2026-05-04 09:40 | 50.07870 | 9.06906 | 6167 ft | 233 kts | 266° |
| 2026-05-04 09:40 | 50.08073 | 9.04409 | 5856 ft | 234 kts | 282° |
| 2026-05-04 09:40 | 50.08477 | 9.01989 | 5703 ft | 224 kts | 284° |
| 2026-05-04 09:40 | 50.08875 | 8.99743 | 5597 ft | 207 kts | 284° |
| 2026-05-04 09:41 | 50.09255 | 8.97630 | 5319 ft | 199 kts | 284° |
| 2026-05-04 09:42 | 50.11537 | 8.82836 | 4298 ft | 193 kts | 257° |
| 2026-05-04 09:43 | 50.11112 | 8.80860 | 4201 ft | 192 kts | 249° |
| 2026-05-04 09:43 | 50.10649 | 8.78921 | 3969 ft | 190 kts | 249° |
| 2026-05-04 09:43 | 50.10192 | 8.76993 | 3720 ft | 189 kts | 249° |
| 2026-05-04 09:43 | 50.09738 | 8.75072 | 3458 ft | 188 kts | 249° |
| 2026-05-04 09:44 | 50.09285 | 8.73159 | 3198 ft | 189 kts | 249° |
| 2026-05-04 09:44 | 50.08832 | 8.71249 | 2918 ft | 187 kts | 249° |
| 2026-05-04 09:44 | 50.08381 | 8.69335 | 2652 ft | 189 kts | 249° |
| 2026-05-04 09:46 | 50.05888 | 8.58741 | 1251 ft | 149 kts | 251° |